Sporting Hill, Pennsylvania
Current Conditions -  °F | °C
As of 8:01 AM on Thursday 23 Oct 2014 (Local Time) from KLNS Reporting Station
Overcast Overcast  
Wind Chill: 52°   Ceiling: 5000
Heat Index: 52°   Visibility: 10mi
Dew Point: 42°   Wind: 16mph
Humidity: 69%   Direction: 320°NW
Pressure: 29.84"   Gusts: 24mph
Location:  40.1777°N, 76.4291°W
Report Text: KLNS 231201Z 32014G21KT 10SM SCT029 BKN050 OVC065 11/06 A2984 RMK AO2 T01110056
Loading
Personal Weather Stations






























Interactive Weather Map
Tropical Storm Tracking
New forecast layout! Learn more

10-Day Weather Forecast

Advertisements
Track Severe Weather on mobile